Time;durP1;ratioP1;P1;durP2;ratioP2;P2;SDS_P1;SDS_P2;PMS_P1;PMS_P2;Temp;Humidity;BMP_temperature;BMP_pressure;BME280_temperature;BME280_humidity;BME280_pressure;Samples;Min_cycle;Max_cycle;Signal;HPM_P1;HPM_P2
2022/07/27 00:00:23;;;;;;;2.20;0.90;;;13.00;99.90;;;;;;5015235;28;20045;-70
2022/07/27 00:02:52;;;;;;;2.25;0.85;;;12.90;99.90;;;;;;4997838;28;20042;-70
2022/07/27 00:05:21;;;;;;;1.80;0.85;;;12.90;99.90;;;;;;5014758;28;20493;-70
2022/07/27 00:07:47;;;;;;;2.40;0.90;;;12.90;99.90;;;;;;5014565;28;20054;-70
2022/07/27 00:10:13;;;;;;;2.55;0.90;;;12.80;99.90;;;;;;5015506;28;20053;-70
2022/07/27 00:12:39;;;;;;;2.78;1.00;;;12.80;99.90;;;;;;5014707;28;20545;-70
2022/07/27 00:15:06;;;;;;;2.72;0.80;;;12.80;99.90;;;;;;5014703;28;20046;-70
2022/07/27 00:17:31;;;;;;;2.33;1.10;;;12.80;99.90;;;;;;5015321;28;20383;-71
2022/07/27 00:19:57;;;;;;;2.50;1.27;;;12.70;99.90;;;;;;5014680;28;20053;-70
2022/07/27 00:22:23;;;;;;;2.53;1.20;;;12.80;99.90;;;;;;4997306;28;20502;-71
2022/07/27 00:24:49;;;;;;;2.67;0.93;;;12.70;99.90;;;;;;5014970;28;20558;-71
2022/07/27 00:27:15;;;;;;;1.58;0.90;;;12.70;99.90;;;;;;5014501;28;20100;-71
2022/07/27 00:29:41;;;;;;;3.67;1.02;;;12.70;99.90;;;;;;5014110;28;20502;-71
2022/07/27 00:32:08;;;;;;;2.83;1.00;;;12.70;99.90;;;;;;4996992;28;20507;-70
2022/07/27 00:34:34;;;;;;;1.77;0.77;;;12.60;99.90;;;;;;5014869;28;20045;-70
2022/07/27 00:37:00;;;;;;;4.22;1.17;;;12.60;99.90;;;;;;5014288;28;20041;-70
2022/07/27 00:39:26;;;;;;;2.88;1.13;;;12.60;99.90;;;;;;5014274;28;20061;-70
2022/07/27 00:41:51;;;;;;;3.85;1.00;;;12.60;99.90;;;;;;5014095;28;20081;-70
2022/07/27 00:44:28;;;;;;;2.05;0.98;;;12.50;99.90;;;;;;5014084;28;20141;-69
2022/07/27 00:46:55;;;;;;;2.47;0.90;;;12.50;99.90;;;;;;5014148;28;20045;-70
2022/07/27 00:49:22;;;;;;;3.30;1.10;;;12.50;99.90;;;;;;5014141;28;20065;-69
2022/07/27 00:51:48;;;;;;;3.97;1.15;;;12.40;99.90;;;;;;5014074;28;20053;-70
2022/07/27 00:54:15;;;;;;;3.78;1.10;;;12.40;99.90;;;;;;5014069;28;20081;-70
2022/07/27 00:56:41;;;;;;;2.03;1.17;;;12.40;99.90;;;;;;5013865;28;20085;-69
2022/07/27 00:59:08;;;;;;;3.15;1.10;;;12.40;99.90;;;;;;5014041;28;20132;-70
2022/07/27 01:01:34;;;;;;;3.28;1.38;;;12.40;99.90;;;;;;5013888;28;20133;-70
2022/07/27 01:04:00;;;;;;;2.20;1.05;;;12.40;99.90;;;;;;5013875;28;20141;-70
2022/07/27 01:06:27;;;;;;;2.33;0.98;;;12.40;99.90;;;;;;4996346;28;20100;-71
2022/07/27 01:09:55;;;;;;;2.30;1.00;;;12.40;99.90;;;;;;5013266;28;20090;-70
2022/07/27 01:11:40;;;;;;;3.38;0.98;;;12.40;99.90;;;;;;5014350;28;20045;-70
2022/07/27 01:14:07;;;;;;;3.53;0.95;;;12.50;99.90;;;;;;4997093;28;20096;-71
2022/07/27 01:16:32;;;;;;;1.83;1.05;;;12.50;99.90;;;;;;5014490;28;20046;-70
2022/07/27 01:18:58;;;;;;;2.22;1.15;;;12.60;99.90;;;;;;4997087;28;20133;-71
2022/07/27 01:21:24;;;;;;;2.88;1.05;;;12.60;99.90;;;;;;4996191;28;20046;-70
2022/07/27 01:23:49;;;;;;;2.58;1.00;;;12.70;99.90;;;;;;5013604;28;20445;-72
2022/07/27 01:26:15;;;;;;;1.55;0.85;;;12.70;99.90;;;;;;4996336;28;20042;-71
2022/07/27 01:28:45;;;;;;;3.58;0.98;;;12.70;99.90;;;;;;4996580;28;20500;-71
2022/07/27 01:31:11;;;;;;;2.00;1.00;;;12.80;99.90;;;;;;5013531;28;20046;-70
2022/07/27 01:33:36;;;;;;;4.15;1.10;;;12.80;99.90;;;;;;5013521;28;20111;-71
2022/07/27 01:36:02;;;;;;;1.70;0.80;;;12.80;99.90;;;;;;5014007;28;20119;-70
2022/07/27 01:38:28;;;;;;;3.65;1.27;;;12.80;99.90;;;;;;5013496;28;20128;-70
2022/07/27 01:40:54;;;;;;;1.52;0.80;;;12.80;99.90;;;;;;5013684;28;20076;-71
2022/07/27 01:43:21;;;;;;;2.97;0.90;;;12.80;99.90;;;;;;5013410;28;20068;-71
2022/07/27 01:45:47;;;;;;;2.28;0.90;;;12.80;99.90;;;;;;5013299;28;20053;-72
2022/07/27 01:48:13;;;;;;;3.97;0.98;;;12.80;99.90;;;;;;5013700;28;20069;-70
2022/07/27 01:50:39;;;;;;;2.38;1.27;;;12.80;99.90;;;;;;5013884;28;20042;-71
2022/07/27 01:53:05;;;;;;;3.90;1.02;;;12.70;99.90;;;;;;4995823;28;20049;-70
2022/07/27 01:55:31;;;;;;;4.07;1.23;;;12.70;99.90;;;;;;5013811;28;20049;-71
2022/07/27 01:57:57;;;;;;;2.42;1.00;;;12.70;99.90;;;;;;4996266;28;20391;-70
2022/07/27 02:00:22;;;;;;;4.95;1.48;;;12.60;99.90;;;;;;5013272;28;20049;-71
2022/07/27 02:02:48;;;;;;;3.88;1.00;;;12.60;99.90;;;;;;4996119;28;20045;-71
2022/07/27 02:05:14;;;;;;;3.35;1.08;;;12.60;99.90;;;;;;4996673;28;20429;-70
2022/07/27 02:07:40;;;;;;;2.33;1.00;;;12.60;99.90;;;;;;4992367;28;20046;-71
2022/07/27 02:10:07;;;;;;;1.95;1.10;;;12.50;99.90;;;;;;4993542;28;20114;-71
2022/07/27 02:12:36;;;;;;;2.08;1.17;;;12.50;99.90;;;;;;4993584;28;20458;-71
2022/07/27 02:15:06;;;;;;;4.22;1.25;;;12.50;99.90;;;;;;4976788;28;20050;-71
2022/07/27 02:17:32;;;;;;;3.00;0.98;;;12.40;99.90;;;;;;4994111;28;20043;-71
2022/07/27 02:19:58;;;;;;;3.13;1.27;;;12.40;99.90;;;;;;4993545;28;20065;-71
2022/07/27 02:22:23;;;;;;;3.42;1.20;;;12.30;99.90;;;;;;4996144;28;20046;-71
2022/07/27 02:24:49;;;;;;;2.20;0.95;;;12.30;99.90;;;;;;4997100;28;20081;-71
2022/07/27 02:27:15;;;;;;;3.78;1.20;;;12.20;99.90;;;;;;4996056;28;20135;-71
2022/07/27 02:29:41;;;;;;;2.65;1.10;;;12.20;99.90;;;;;;4997080;28;20046;-71
2022/07/27 02:32:06;;;;;;;2.97;1.10;;;12.20;99.90;;;;;;4997130;28;20053;-71
2022/07/27 02:34:32;;;;;;;1.60;0.80;;;12.10;99.90;;;;;;4996981;28;20065;-72
2022/07/27 02:36:57;;;;;;;1.98;1.00;;;12.10;99.90;;;;;;4997155;28;20054;-71
2022/07/27 02:39:23;;;;;;;3.03;0.90;;;12.00;99.90;;;;;;4995528;28;20049;-71
2022/07/27 02:41:49;;;;;;;2.75;1.05;;;11.90;99.90;;;;;;4996099;28;20081;-71
2022/07/27 02:44:16;;;;;;;2.60;1.10;;;11.80;99.90;;;;;;4996837;28;20049;-70
2022/07/27 02:46:42;;;;;;;3.30;0.90;;;11.80;99.90;;;;;;4997273;28;20052;-70
2022/07/27 02:49:08;;;;;;;2.83;1.20;;;11.80;99.90;;;;;;4996733;28;20056;-70
2022/07/27 02:51:33;;;;;;;2.65;0.95;;;11.70;99.90;;;;;;4996638;28;20050;-70
2022/07/27 02:53:59;;;;;;;3.42;1.10;;;11.70;99.90;;;;;;4996626;28;20043;-71
2022/07/27 02:56:25;;;;;;;2.53;0.90;;;11.60;99.90;;;;;;4996599;28;20383;-71
2022/07/27 02:58:51;;;;;;;1.92;0.93;;;11.50;99.90;;;;;;4996549;28;20133;-70
2022/07/27 03:01:17;;;;;;;3.22;0.98;;;11.40;99.90;;;;;;4997027;28;20158;-70
2022/07/27 03:03:43;;;;;;;2.40;1.10;;;11.40;99.90;;;;;;4996487;28;20050;-71
2022/07/27 03:06:08;;;;;;;2.10;1.00;;;11.30;99.90;;;;;;4996676;28;20046;-70
2022/07/27 03:08:35;;;;;;;3.35;0.90;;;11.30;99.90;;;;;;5011339;28;20383;-71
2022/07/27 03:11:01;;;;;;;2.28;1.00;;;11.30;99.90;;;;;;5015905;28;20053;-70
2022/07/27 03:13:27;;;;;;;2.22;1.00;;;11.20;99.90;;;;;;4998313;28;20052;-70
2022/07/27 03:15:53;;;;;;;2.55;0.98;;;11.20;99.90;;;;;;4998846;28;20401;-71
2022/07/27 03:18:20;;;;;;;2.90;1.10;;;11.20;99.90;;;;;;5015834;28;20049;-70
2022/07/27 03:20:45;;;;;;;2.08;0.90;;;11.20;99.90;;;;;;4999225;28;20089;-71
2022/07/27 03:23:11;;;;;;;2.67;0.98;;;11.30;99.90;;;;;;5015970;28;20077;-71
2022/07/27 03:25:37;;;;;;;2.50;1.00;;;11.30;99.90;;;;;;4998824;28;20038;-71
2022/07/27 03:28:03;;;;;;;1.73;0.85;;;11.20;99.90;;;;;;5015688;28;20056;-71
2022/07/27 03:30:28;;;;;;;1.70;1.00;;;11.20;99.90;;;;;;5015769;28;20045;-71
2022/07/27 03:32:54;;;;;;;2.15;1.00;;;11.20;99.90;;;;;;5014292;28;20042;-71
2022/07/27 03:35:20;;;;;;;2.85;0.95;;;11.20;99.90;;;;;;5016562;28;20049;-71
2022/07/27 03:37:46;;;;;;;3.35;0.90;;;11.10;99.90;;;;;;5018089;28;20108;-71
2022/07/27 03:40:11;;;;;;;2.65;1.20;;;11.10;99.90;;;;;;5018083;28;20378;-71
2022/07/27 03:42:37;;;;;;;3.70;1.00;;;11.00;99.90;;;;;;5016159;28;20553;-71
2022/07/27 03:45:04;;;;;;;4.15;1.20;;;11.00;99.90;;;;;;4997713;28;20042;-71
2022/07/27 03:47:29;;;;;;;3.25;1.02;;;11.00;99.90;;;;;;5014644;28;20192;-70
2022/07/27 03:49:55;;;;;;;3.10;1.10;;;11.00;99.90;;;;;;5014646;28;20137;-71
2022/07/27 03:52:21;;;;;;;2.45;0.95;;;10.90;99.90;;;;;;5014987;28;20118;-71
2022/07/27 03:54:47;;;;;;;2.60;1.00;;;10.90;99.90;;;;;;4981473;28;20046;-71
2022/07/27 03:57:13;;;;;;;3.63;1.23;;;11.00;99.90;;;;;;5015787;28;20063;-71
2022/07/27 03:59:39;;;;;;;3.17;1.25;;;11.00;99.90;;;;;;5015376;28;20396;-70
2022/07/27 04:02:04;;;;;;;3.05;1.08;;;11.00;99.90;;;;;;5015334;28;20050;-70
2022/07/27 04:04:30;;;;;;;2.20;1.20;;;11.10;99.90;;;;;;5015764;28;20050;-73
2022/07/27 04:06:57;;;;;;;2.40;1.05;;;11.10;99.90;;;;;;5015041;28;20045;-70
2022/07/27 04:09:23;;;;;;;3.53;1.58;;;11.20;99.90;;;;;;5014884;28;20113;-70
2022/07/27 04:11:49;;;;;;;2.28;1.08;;;11.20;99.90;;;;;;5014738;28;20056;-70
2022/07/27 04:14:15;;;;;;;3.05;1.05;;;11.20;99.90;;;;;;5014735;28;20041;-70
2022/07/27 04:16:41;;;;;;;3.78;1.10;;;11.10;99.90;;;;;;5014667;28;20057;-71
2022/07/27 04:19:07;;;;;;;2.92;1.10;;;11.20;99.90;;;;;;5014628;28;20189;-70
2022/07/27 04:21:35;;;;;;;2.65;1.25;;;11.20;99.90;;;;;;5014845;28;20049;-70
2022/07/27 04:24:01;;;;;;;2.97;1.15;;;11.20;99.90;;;;;;5014726;28;20123;-71
2022/07/27 04:26:27;;;;;;;3.22;1.20;;;11.30;99.90;;;;;;4996907;28;20486;-70
2022/07/27 04:28:53;;;;;;;4.65;1.35;;;11.40;99.90;;;;;;5014483;28;20038;-71
2022/07/27 04:31:19;;;;;;;3.88;1.17;;;11.40;99.90;;;;;;5014947;28;20131;-73
2022/07/27 04:33:44;;;;;;;2.40;1.27;;;11.50;99.90;;;;;;5015059;28;20046;-70
2022/07/27 04:36:10;;;;;;;3.05;1.20;;;11.50;99.90;;;;;;5014341;28;20034;-72
2022/07/27 04:38:36;;;;;;;2.40;1.40;;;11.60;99.90;;;;;;4996758;28;20057;-72
2022/07/27 04:41:01;;;;;;;3.67;1.83;;;11.70;99.90;;;;;;5014202;28;20058;-70
2022/07/27 04:43:27;;;;;;;3.17;1.10;;;11.80;99.90;;;;;;5014072;28;20479;-70
2022/07/27 04:45:53;;;;;;;3.13;1.40;;;11.80;99.90;;;;;;5014446;28;20042;-73
2022/07/27 04:48:18;;;;;;;5.60;1.50;;;12.00;99.90;;;;;;5014169;28;20050;-72
2022/07/27 04:50:46;;;;;;;2.25;1.23;;;12.00;99.90;;;;;;5013744;28;20048;-70
2022/07/27 04:53:12;;;;;;;3.47;1.50;;;11.90;99.90;;;;;;5014085;28;20042;-70
2022/07/27 04:55:42;;;;;;;2.38;1.33;;;12.10;99.90;;;;;;5014582;28;20046;-70
2022/07/27 04:58:08;;;;;;;2.63;1.30;;;12.10;99.90;;;;;;5014525;28;20068;-70
2022/07/27 05:00:34;;;;;;;4.57;1.55;;;12.10;99.90;;;;;;5014174;28;20386;-70
2022/07/27 05:03:00;;;;;;;4.45;1.40;;;12.20;99.90;;;;;;5014642;28;20132;-70
2022/07/27 05:05:26;;;;;;;3.95;1.30;;;12.20;99.90;;;;;;5013746;28;20048;-71
2022/07/27 05:07:51;;;;;;;2.72;1.40;;;12.30;99.90;;;;;;5013733;28;20068;-70
2022/07/27 05:10:17;;;;;;;2.30;1.10;;;12.40;99.90;;;;;;5013734;28;20042;-71
2022/07/27 05:12:43;;;;;;;3.75;1.30;;;12.40;99.90;;;;;;5013765;28;20046;-70
2022/07/27 05:15:09;;;;;;;2.35;1.02;;;12.40;99.90;;;;;;5014251;28;20226;-71
2022/07/27 05:17:35;;;;;;;3.90;1.30;;;12.50;99.90;;;;;;5013629;28;20459;-71
2022/07/27 05:20:01;;;;;;;3.83;1.33;;;12.50;99.90;;;;;;5014421;28;20068;-71
2022/07/27 05:22:27;;;;;;;4.55;1.20;;;12.60;99.90;;;;;;5013582;28;20045;-70
2022/07/27 05:24:53;;;;;;;2.33;1.20;;;12.60;99.90;;;;;;5013809;28;20049;-70
2022/07/27 05:27:18;;;;;;;3.08;1.35;;;12.70;99.90;;;;;;5013575;28;20042;-71
2022/07/27 05:29:44;;;;;;;4.68;1.40;;;12.80;99.90;;;;;;5013811;28;20052;-70
2022/07/27 05:32:09;;;;;;;3.53;1.20;;;12.80;99.90;;;;;;5013495;28;20050;-70
2022/07/27 05:34:35;;;;;;;2.00;1.20;;;12.90;99.90;;;;;;5013496;28;20081;-71
2022/07/27 05:37:01;;;;;;;1.92;1.00;;;12.90;99.90;;;;;;4996233;28;20108;-71
2022/07/27 05:39:27;;;;;;;3.95;1.10;;;13.00;99.90;;;;;;5013476;28;20132;-71
2022/07/27 05:41:52;;;;;;;3.50;1.08;;;13.00;99.90;;;;;;5013836;28;20048;-70
2022/07/27 05:44:18;;;;;;;3.90;1.35;;;13.10;99.90;;;;;;5013878;28;20137;-70
2022/07/27 05:46:44;;;;;;;2.65;1.00;;;13.10;99.90;;;;;;4996080;28;20038;-71
2022/07/27 05:49:09;;;;;;;2.20;1.15;;;13.20;99.90;;;;;;5012974;28;20049;-71
2022/07/27 05:51:37;;;;;;;3.80;1.20;;;13.20;99.90;;;;;;5013319;28;20097;-71
2022/07/27 05:54:02;;;;;;;3.40;1.00;;;13.30;99.90;;;;;;4996779;28;20061;-71
2022/07/27 05:56:28;;;;;;;3.03;1.00;;;13.40;99.90;;;;;;4998077;28;20050;-71
2022/07/27 05:58:54;;;;;;;3.15;1.40;;;13.50;99.90;;;;;;5017295;28;20367;-71
2022/07/27 06:01:20;;;;;;;2.28;1.17;;;13.60;99.90;;;;;;5017944;28;20050;-71
2022/07/27 06:03:45;;;;;;;4.97;1.10;;;13.60;99.90;;;;;;5017255;28;20042;-72
2022/07/27 06:08:55;;;;;;;2.90;1.23;;;13.70;99.90;;;;;;5016693;28;20058;-71
2022/07/27 06:11:21;;;;;;;2.80;1.05;;;13.80;99.90;;;;;;4999435;28;20200;-72
2022/07/27 06:13:47;;;;;;;3.28;1.20;;;13.80;99.90;;;;;;5017001;28;20046;-72
2022/07/27 06:16:12;;;;;;;3.40;1.45;;;13.80;99.90;;;;;;5017257;28;20045;-72
2022/07/27 06:18:38;;;;;;;3.38;1.15;;;13.90;99.90;;;;;;5017001;28;20046;-67
2022/07/27 06:21:04;;;;;;;4.45;1.25;;;14.10;99.90;;;;;;4999631;28;20467;-66
2022/07/27 06:23:30;;;;;;;2.78;0.95;;;14.10;99.90;;;;;;5016820;28;20065;-66
2022/07/27 06:25:56;;;;;;;3.65;1.05;;;14.20;99.90;;;;;;5000030;28;20513;-67
2022/07/27 06:28:22;;;;;;;5.13;1.48;;;14.30;99.90;;;;;;5016991;28;20054;-66
2022/07/27 06:30:48;;;;;;;3.13;1.00;;;14.40;99.90;;;;;;5016655;28;20046;-66
2022/07/27 06:33:14;;;;;;;2.85;1.00;;;14.40;99.90;;;;;;5016602;28;20158;-66
2022/07/27 06:35:40;;;;;;;2.28;1.02;;;14.40;99.90;;;;;;5017098;28;20130;-66
2022/07/27 06:38:07;;;;;;;2.58;1.20;;;14.50;99.90;;;;;;4983343;28;20152;-66
2022/07/27 06:40:33;;;;;;;2.22;1.00;;;14.50;99.90;;;;;;5017166;28;20091;-67
2022/07/27 06:42:59;;;;;;;6.60;1.33;;;14.50;99.90;;;;;;5016536;28;20048;-66
2022/07/27 06:45:25;;;;;;;3.15;1.38;;;14.50;99.90;;;;;;5016390;28;20459;-66
2022/07/27 06:47:51;;;;;;;2.22;1.13;;;14.60;99.90;;;;;;5016332;28;20046;-66
2022/07/27 06:50:19;;;;;;;6.07;1.45;;;14.60;99.90;;;;;;5016380;28;20429;-66
2022/07/27 06:52:45;;;;;;;4.50;1.00;;;14.70;99.90;;;;;;5016682;28;20124;-66
2022/07/27 06:55:12;;;;;;;2.10;0.90;;;14.70;99.90;;;;;;5016255;28;20049;-67
2022/07/27 06:57:37;;;;;;;2.33;1.02;;;14.70;99.90;;;;;;5016262;28;20188;-66
2022/07/27 07:00:05;;;;;;;4.10;1.20;;;14.80;99.90;;;;;;5016124;28;20085;-66
2022/07/27 07:02:31;;;;;;;5.40;1.10;;;14.90;99.90;;;;;;5016129;28;20046;-66
2022/07/27 07:04:57;;;;;;;2.30;0.90;;;14.90;99.90;;;;;;5016513;28;20049;-66
2022/07/27 07:07:24;;;;;;;4.00;1.27;;;15.00;99.90;;;;;;5015780;28;20061;-66
2022/07/27 07:09:50;;;;;;;3.22;1.13;;;15.00;99.90;;;;;;4998565;28;20045;-67
2022/07/27 07:12:17;;;;;;;2.65;1.00;;;15.10;99.90;;;;;;5015865;28;20048;-67
2022/07/27 07:14:43;;;;;;;2.40;0.90;;;15.10;99.90;;;;;;5016354;28;20450;-67
2022/07/27 07:17:09;;;;;;;2.25;0.98;;;15.20;99.90;;;;;;5015298;28;20052;-65
2022/07/27 07:19:34;;;;;;;2.53;0.82;;;15.20;99.90;;;;;;5016050;28;20378;-66
2022/07/27 07:22:00;;;;;;;1.95;0.70;;;15.20;99.90;;;;;;5016026;28;20049;-67
2022/07/27 07:24:28;;;;;;;2.58;1.02;;;15.30;99.90;;;;;;5015637;28;20399;-66
2022/07/27 07:26:54;;;;;;;2.75;0.90;;;15.30;99.90;;;;;;5015489;28;20615;-66
2022/07/27 07:29:20;;;;;;;2.00;0.90;;;15.30;99.90;;;;;;5015545;28;20085;-66
2022/07/27 07:31:46;;;;;;;2.88;0.90;;;15.40;99.90;;;;;;5016058;28;20422;-66
2022/07/27 07:34:11;;;;;;;2.70;0.80;;;15.40;99.90;;;;;;5015504;28;20087;-66
2022/07/27 07:36:37;;;;;;;2.85;0.95;;;15.40;99.90;;;;;;5015309;28;20049;-66
2022/07/27 07:39:03;;;;;;;1.80;0.75;;;15.30;99.90;;;;;;5015353;28;20073;-66
2022/07/27 07:41:28;;;;;;;2.17;0.90;;;15.30;99.90;;;;;;5015321;28;20261;-66
2022/07/27 07:43:54;;;;;;;3.13;0.80;;;15.30;99.90;;;;;;4998352;28;20049;-66
2022/07/27 07:46:20;;;;;;;1.85;0.80;;;15.30;99.90;;;;;;5015738;28;20038;-66
2022/07/27 07:48:46;;;;;;;2.53;0.70;;;15.20;99.90;;;;;;5016085;28;20046;-66
2022/07/27 07:51:11;;;;;;;2.60;0.82;;;15.20;99.90;;;;;;5015170;28;20104;-66
2022/07/27 07:53:37;;;;;;;2.05;0.80;;;15.20;99.90;;;;;;5015185;28;20108;-66
2022/07/27 07:56:03;;;;;;;2.20;0.70;;;15.20;99.90;;;;;;5015128;28;20110;-66
2022/07/27 07:58:30;;;;;;;2.13;0.73;;;15.30;99.90;;;;;;5015055;28;20128;-66
2022/07/27 08:00:55;;;;;;;2.83;0.68;;;15.40;99.90;;;;;;4998059;28;20050;-66
2022/07/27 08:03:21;;;;;;;1.40;0.60;;;15.40;99.90;;;;;;5015056;28;20052;-66
2022/07/27 08:05:47;;;;;;;1.27;0.50;;;15.50;99.90;;;;;;5014850;28;20473;-66
2022/07/27 08:08:13;;;;;;;2.72;0.65;;;15.60;99.90;;;;;;4997248;28;20050;-65
2022/07/27 08:10:39;;;;;;;1.85;0.77;;;15.70;99.90;;;;;;5014725;28;20050;-66
2022/07/27 08:13:04;;;;;;;2.10;0.77;;;15.80;99.90;;;;;;5015057;28;20395;-66
2022/07/27 08:15:30;;;;;;;2.33;0.70;;;15.90;99.90;;;;;;5014888;28;20391;-66
2022/07/27 08:17:56;;;;;;;3.92;0.80;;;16.00;99.90;;;;;;5014296;28;20050;-67
2022/07/27 08:20:23;;;;;;;2.60;0.60;;;16.20;99.90;;;;;;5013986;28;20049;-66
2022/07/27 08:22:49;;;;;;;2.97;0.88;;;16.30;99.90;;;;;;5014569;28;20081;-67
2022/07/27 08:25:15;;;;;;;3.08;0.70;;;16.40;99.90;;;;;;4981809;28;20128;-67
2022/07/27 08:27:41;;;;;;;2.05;0.82;;;16.50;99.90;;;;;;5014487;28;20045;-67
2022/07/27 08:30:09;;;;;;;1.52;0.60;;;16.50;99.90;;;;;;5014387;28;20046;-67
2022/07/27 08:32:50;;;;;;;3.20;0.70;;;16.70;99.90;;;;;;5014345;28;20482;-67
2022/07/27 08:35:20;;;;;;;2.45;0.70;;;16.80;99.90;;;;;;5015029;28;20060;-64
2022/07/27 08:37:46;;;;;;;2.85;1.17;;;16.90;99.90;;;;;;5014181;28;20052;-65
2022/07/27 08:40:13;;;;;;;3.03;0.80;;;17.00;99.90;;;;;;5013867;28;20042;-66
2022/07/27 08:42:42;;;;;;;2.33;0.75;;;17.00;99.90;;;;;;5014966;28;20193;-65
2022/07/27 08:45:11;;;;;;;2.05;0.80;;;17.10;99.90;;;;;;5014132;28;20125;-65
2022/07/27 08:47:39;;;;;;;3.63;0.77;;;17.20;99.90;;;;;;5014357;28;20486;-66
2022/07/27 08:50:22;;;;;;;3.13;0.73;;;17.30;99.90;;;;;;5014130;28;20401;-66
2022/07/27 08:53:02;;;;;;;4.38;1.00;;;17.50;99.90;;;;;;5014674;28;20107;-66
2022/07/27 08:55:32;;;;;;;1.98;0.63;;;17.60;99.90;;;;;;5014035;28;20050;-66
2022/07/27 08:57:58;;;;;;;2.10;0.73;;;17.70;99.90;;;;;;5014490;28;20397;-66
2022/07/27 09:00:24;;;;;;;1.60;0.60;;;17.80;99.90;;;;;;5013947;28;20045;-66
2022/07/27 09:02:50;;;;;;;2.50;1.00;;;17.80;99.90;;;;;;5013873;28;20046;-65
2022/07/27 09:05:16;;;;;;;2.15;0.65;;;17.90;99.90;;;;;;5014527;28;20382;-66
2022/07/27 09:07:42;;;;;;;4.60;0.95;;;18.00;99.90;;;;;;5013646;28;20089;-65
2022/07/27 09:10:08;;;;;;;2.97;0.75;;;18.10;99.90;;;;;;5013800;28;20123;-66
2022/07/27 09:12:35;;;;;;;2.92;0.80;;;18.30;99.90;;;;;;5014205;28;20433;-66
2022/07/27 09:15:10;;;;;;;2.40;0.80;;;18.40;99.90;;;;;;5013651;28;20049;-65
2022/07/27 09:17:36;;;;;;;2.15;0.68;;;18.60;99.90;;;;;;5013692;28;20132;-65
2022/07/27 09:20:16;;;;;;;2.10;0.90;;;18.60;99.90;;;;;;5013407;28;20064;-66
2022/07/27 09:22:45;;;;;;;2.30;0.70;;;18.70;99.90;;;;;;5013658;28;20046;-66
2022/07/27 09:25:14;;;;;;;2.25;0.80;;;18.50;99.90;;;;;;5013536;28;20046;-73
2022/07/27 09:27:41;;;;;;;2.85;0.77;;;18.30;99.90;;;;;;4980218;28;20050;-73
2022/07/27 09:30:10;;;;;;;3.40;0.90;;;18.00;99.90;;;;;;5013620;28;20049;-73
2022/07/27 09:32:37;;;;;;;2.08;0.70;;;17.60;99.90;;;;;;5013631;28;20125;-66
2022/07/27 09:35:18;;;;;;;2.97;1.08;;;17.40;99.90;;;;;;5013799;28;20394;-65
2022/07/27 09:37:44;;;;;;;2.30;0.90;;;17.10;99.90;;;;;;5013475;28;20469;-65
2022/07/27 09:40:19;;;;;;;2.05;0.80;;;16.90;99.90;;;;;;5013887;28;20128;-66
2022/07/27 09:42:46;;;;;;;2.88;0.85;;;16.70;99.90;;;;;;5013402;28;20081;-67
2022/07/27 09:45:33;;;;;;;3.33;0.90;;;16.50;99.90;;;;;;5013435;28;20057;-66
2022/07/27 09:48:13;;;;;;;2.28;0.77;;;16.40;99.90;;;;;;5013627;28;20161;-65
2022/07/27 09:50:42;;;;;;;3.08;1.27;;;16.30;99.90;;;;;;5013383;28;20054;-64
2022/07/27 09:53:28;;;;;;;3.22;0.80;;;16.20;99.90;;;;;;5013062;28;20045;-65
2022/07/27 09:56:03;;;;;;;1.75;0.80;;;16.20;99.90;;;;;;5013616;28;20057;-66
2022/07/27 09:58:47;;;;;;;1.93;0.80;;;16.20;99.90;;;;;;5013108;28;20054;-65
2022/07/27 10:01:21;;;;;;;2.55;0.80;;;16.20;99.90;;;;;;4996427;28;20054;-65
2022/07/27 10:03:50;;;;;;;2.17;0.90;;;16.30;99.90;;;;;;5013007;28;20046;-65
2022/07/27 10:06:16;;;;;;;2.95;0.88;;;16.30;99.90;;;;;;4995597;28;20124;-65
2022/07/27 10:08:44;;;;;;;3.83;1.05;;;16.40;99.90;;;;;;5013246;28;20062;-66
2022/07/27 10:11:11;;;;;;;3.67;0.93;;;16.50;99.90;;;;;;5012927;28;20425;-66
2022/07/27 10:13:37;;;;;;;3.83;0.85;;;16.70;99.90;;;;;;5012938;28;20046;-66
2022/07/27 10:16:05;;;;;;;1.52;0.90;;;16.80;99.90;;;;;;4995519;28;20054;-65
2022/07/27 10:18:47;;;;;;;3.80;0.98;;;16.90;99.90;;;;;;5012958;28;20046;-65
2022/07/27 10:21:13;;;;;;;4.25;0.98;;;17.10;99.90;;;;;;5013463;28;20072;-66
2022/07/27 10:23:39;;;;;;;2.60;1.13;;;17.20;99.90;;;;;;5012799;28;20471;-65
2022/07/27 10:26:31;;;;;;;3.63;1.02;;;17.40;99.90;;;;;;5013218;28;20497;-65
2022/07/27 10:29:15;;;;;;;2.50;1.00;;;17.50;99.90;;;;;;5009434;28;20143;-66
2022/07/27 10:31:55;;;;;;;1.88;0.82;;;17.60;99.90;;;;;;5012847;28;20042;-65
2022/07/27 10:34:40;;;;;;;4.30;0.90;;;17.70;99.90;;;;;;5012833;28;20041;-65
2022/07/27 10:37:12;;;;;;;1.88;0.70;;;18.00;99.90;;;;;;5013286;28;20123;-65
2022/07/27 10:40:33;;;;;;;3.03;0.75;;;18.00;99.90;;;;;;5013503;28;20077;-66
2022/07/27 10:42:38;;;;;;;2.88;0.80;;;18.20;99.90;;;;;;5013947;28;20136;-65
2022/07/27 10:45:08;;;;;;;1.90;0.75;;;18.30;99.90;;;;;;4999523;28;20050;-66
2022/07/27 10:47:54;;;;;;;3.20;0.80;;;18.40;99.90;;;;;;5015994;28;20505;-66
2022/07/27 10:50:28;;;;;;;1.38;0.70;;;18.50;99.90;;;;;;5015303;28;20062;-66
2022/07/27 10:53:15;;;;;;;3.28;0.88;;;18.50;99.90;;;;;;5015978;28;20387;-65
2022/07/27 10:55:43;;;;;;;2.40;0.63;;;18.60;99.90;;;;;;5015967;28;20085;-65
2022/07/27 10:58:08;;;;;;;2.60;0.90;;;18.60;99.90;;;;;;5015824;28;20156;-65
2022/07/27 11:00:49;;;;;;;2.83;0.90;;;18.60;99.90;;;;;;5015919;28;20081;-65
2022/07/27 11:03:32;;;;;;;2.33;0.70;;;18.70;99.90;;;;;;5015723;28;20053;-65
2022/07/27 11:06:19;;;;;;;2.85;0.70;;;18.70;99.90;;;;;;5016361;28;20100;-65
2022/07/27 11:08:46;;;;;;;2.58;0.80;;;18.80;99.90;;;;;;5015298;28;20058;-66
2022/07/27 11:11:14;;;;;;;2.67;0.63;;;18.90;99.90;;;;;;5015657;28;20048;-65
2022/07/27 11:13:40;;;;;;;1.48;0.68;;;19.00;99.90;;;;;;5015641;28;20098;-65
2022/07/27 11:16:12;;;;;;;1.70;0.80;;;19.10;99.90;;;;;;5015699;28;20045;-65
2022/07/27 11:18:41;;;;;;;1.70;0.63;;;19.30;99.90;;;;;;5015547;28;20050;-65
2022/07/27 11:21:17;;;;;;;1.52;0.50;;;19.50;99.90;;;;;;5015459;28;20053;-64
2022/07/27 11:23:45;;;;;;;2.55;0.70;;;19.50;99.90;;;;;;5015179;28;20050;-65
2022/07/27 11:26:11;;;;;;;2.33;0.80;;;19.40;99.90;;;;;;5015367;28;20049;-63
2022/07/27 11:28:37;;;;;;;1.98;0.70;;;19.30;99.90;;;;;;4997843;28;20057;-64
2022/07/27 11:31:04;;;;;;;1.98;0.70;;;19.30;99.90;;;;;;5015252;28;20085;-64
2022/07/27 11:33:30;;;;;;;2.85;0.90;;;19.30;99.90;;;;;;5015823;28;20049;-66
2022/07/27 11:35:58;;;;;;;3.05;0.70;;;19.40;99.90;;;;;;4998116;28;20414;-65
2022/07/27 11:38:24;;;;;;;1.42;0.70;;;19.30;99.90;;;;;;5015380;28;20056;-66
2022/07/27 11:40:51;;;;;;;1.65;0.60;;;19.20;99.90;;;;;;5015290;28;20049;-65
2022/07/27 11:43:34;;;;;;;2.22;0.70;;;19.10;99.90;;;;;;5015444;28;20463;-66
2022/07/27 11:46:25;;;;;;;2.22;0.85;;;19.00;99.90;;;;;;5015713;28;20042;-66
2022/07/27 11:48:54;;;;;;;2.47;0.73;;;18.90;99.90;;;;;;5015803;28;20052;-65
2022/07/27 11:51:21;;;;;;;1.48;0.70;;;18.90;99.90;;;;;;5015208;28;20045;-66
2022/07/27 11:53:47;;;;;;;2.05;0.70;;;18.80;99.90;;;;;;5014837;28;20068;-65
2022/07/27 11:56:21;;;;;;;3.45;0.80;;;18.80;99.90;;;;;;5015512;28;20052;-66
2022/07/27 11:59:20;;;;;;;1.48;0.60;;;18.80;99.90;;;;;;5014892;28;20056;-66
2022/07/27 12:01:55;;;;;;;2.20;0.70;;;18.90;99.90;;;;;;4999733;28;20070;-66
2022/07/27 12:04:22;;;;;;;3.30;0.75;;;18.90;99.90;;;;;;5015054;28;20065;-66
2022/07/27 12:07:02;;;;;;;2.92;0.70;;;19.00;99.90;;;;;;5014804;28;20085;-65
2022/07/27 12:09:30;;;;;;;1.17;0.50;;;19.10;99.90;;;;;;5015088;28;20058;-65
2022/07/27 12:12:07;;;;;;;2.28;0.80;;;19.10;99.90;;;;;;5015248;28;20050;-65
2022/07/27 12:14:36;;;;;;;1.77;0.63;;;19.20;99.90;;;;;;5015135;28;20141;-65
2022/07/27 12:17:17;;;;;;;0.80;0.50;;;19.30;99.90;;;;;;5014611;28;20050;-64
2022/07/27 12:20:10;;;;;;;2.25;0.80;;;19.40;99.90;;;;;;4998106;28;20050;-63
2022/07/27 12:22:37;;;;;;;2.72;0.60;;;19.50;99.90;;;;;;5000538;28;20058;-63
2022/07/27 12:25:17;;;;;;;3.75;0.75;;;19.50;99.90;;;;;;5015013;28;20057;-64
2022/07/27 12:28:00;;;;;;;1.73;0.68;;;19.50;99.90;;;;;;5015295;28;20080;-63
2022/07/27 12:30:37;;;;;;;1.77;0.75;;;19.30;99.90;;;;;;5015032;28;20364;-63
2022/07/27 12:33:05;;;;;;;4.80;0.70;;;19.20;99.90;;;;;;5014459;28;20050;-64
2022/07/27 12:35:40;;;;;;;3.38;0.65;;;19.00;99.90;;;;;;5014405;28;20045;-64
2022/07/27 12:38:07;;;;;;;0.90;0.45;;;18.80;99.90;;;;;;5014890;28;20103;-64
2022/07/27 12:40:42;;;;;;;1.88;0.50;;;18.60;99.90;;;;;;5014156;28;20128;-63
2022/07/27 12:43:08;;;;;;;1.13;0.57;;;18.60;99.90;;;;;;5014560;28;20410;-63
2022/07/27 12:45:37;;;;;;;1.02;0.50;;;18.60;99.90;;;;;;5013996;28;20048;-63
2022/07/27 12:48:15;;;;;;;1.25;0.45;;;18.50;99.90;;;;;;5014039;28;20050;-65
2022/07/27 12:50:42;;;;;;;1.73;0.55;;;18.50;99.90;;;;;;5014591;28;20049;-65
2022/07/27 12:53:10;;;;;;;1.60;0.50;;;18.50;99.90;;;;;;4996455;28;20104;-65
2022/07/27 12:55:36;;;;;;;2.03;0.60;;;18.60;99.90;;;;;;5014101;28;20092;-65